createdAt,value
2023-02-07T00:01:30.538Z,103026.92
2023-02-07T00:03:58.954Z,103026.58
2023-02-07T00:06:29.157Z,103029.73
2023-02-07T00:08:56.331Z,103023.23
2023-02-07T00:11:24.107Z,103024.83
2023-02-07T00:13:54.023Z,103021.95
2023-02-07T00:16:21.834Z,103031.25
2023-02-07T00:18:49.186Z,103035.14
2023-02-07T00:21:19.203Z,103034.61
2023-02-07T00:23:47.289Z,103035.33
2023-02-07T00:26:16.003Z,103029.70
2023-02-07T00:28:43.664Z,103032.07
2023-02-07T00:31:29.032Z,103039.23
2023-02-07T00:33:58.373Z,103042.61
2023-02-07T00:36:27.056Z,103047.48
2023-02-07T00:38:59.713Z,103048.42
2023-02-07T00:41:27.803Z,103055.70
2023-02-07T00:43:54.883Z,103056.22
2023-02-07T00:46:23.873Z,103053.90
2023-02-07T00:48:51.131Z,103057.35
2023-02-07T00:51:18.116Z,103062.11
2023-02-07T00:53:45.702Z,103062.20
2023-02-07T00:56:14.646Z,103059.27
2023-02-07T00:58:41.816Z,103058.42
2023-02-07T01:01:08.592Z,103063.58
2023-02-07T01:03:35.148Z,103073.95
2023-02-07T01:06:02.112Z,103080.49
2023-02-07T01:08:28.837Z,103088.92
2023-02-07T01:10:56.816Z,103089.15
2023-02-07T01:13:23.608Z,103094.05
2023-02-07T01:15:50.727Z,103092.73
2023-02-07T01:18:17.646Z,103090.95
2023-02-07T01:20:44.929Z,103091.20
2023-02-07T01:23:13.319Z,103094.52
2023-02-07T01:25:41.617Z,103091.94
2023-02-07T01:28:08.292Z,103088.11
2023-02-07T01:30:35.044Z,103091.02
2023-02-07T01:33:02.512Z,103086.48
2023-02-07T01:35:29.488Z,103092.11
2023-02-07T01:37:58.510Z,103093.61
2023-02-07T01:40:27.321Z,103090.76
2023-02-07T01:42:53.984Z,103091.26
2023-02-07T01:45:39.574Z,103095.02
2023-02-07T01:48:15.475Z,103089.77
2023-02-07T01:50:46.235Z,103087.95
2023-02-07T01:53:16.011Z,103091.77
2023-02-07T01:55:45.823Z,103096.37
2023-02-07T01:58:13.115Z,103097.66
2023-02-07T02:00:40.165Z,103092.40
2023-02-07T02:03:07.135Z,103091.87
2023-02-07T02:05:35.696Z,103090.75
2023-02-07T02:08:03.154Z,103089.73
2023-02-07T02:10:48.861Z,103089.33
2023-02-07T02:13:41.588Z,103089.85
2023-02-07T02:16:24.151Z,103088.08
2023-02-07T02:19:28.689Z,103086.83
2023-02-07T02:21:55.303Z,103081.80
2023-02-07T02:24:57.305Z,103084.36
2023-02-07T02:27:27.010Z,103084.86
2023-02-07T02:30:06.200Z,103081.85
2023-02-07T02:33:22.396Z,103078.09
2023-02-07T02:35:56.496Z,103081.35
2023-02-07T02:38:51.249Z,103083.74
2023-02-07T02:41:29.021Z,103079.99
2023-02-07T02:44:07.705Z,103076.98
2023-02-07T02:46:38.823Z,103080.98
2023-02-07T02:49:10.457Z,103076.58
2023-02-07T02:51:37.518Z,103071.67
2023-02-07T02:54:05.040Z,103074.51
2023-02-07T02:57:16.059Z,103070.88
2023-02-07T02:59:52.160Z,103069.42
2023-02-07T03:02:51.744Z,103070.68
2023-02-07T03:05:31.037Z,103075.94
2023-02-07T03:08:25.603Z,103081.27
2023-02-07T03:10:52.280Z,103081.70
2023-02-07T03:13:47.037Z,103090.09
2023-02-07T03:16:31.286Z,103093.11
2023-02-07T03:19:22.484Z,103096.66
2023-02-07T03:21:57.732Z,103096.14
2023-02-07T03:24:29.470Z,103098.84
2023-02-07T03:26:59.178Z,103101.85
2023-02-07T03:29:29.367Z,103100.17
2023-02-07T03:31:58.630Z,103102.33
2023-02-07T03:34:32.808Z,103105.23
2023-02-07T03:37:07.159Z,103107.34
2023-02-07T03:39:34.270Z,103110.20
2023-02-07T03:42:14.043Z,103113.61
2023-02-07T03:44:43.505Z,103112.13
2023-02-07T03:47:10.093Z,103117.96
2023-02-07T03:49:36.746Z,103117.35
2023-02-07T03:52:03.455Z,103122.42
2023-02-07T03:54:30.083Z,103122.30
2023-02-07T03:56:56.733Z,103121.67
2023-02-07T03:59:23.373Z,103127.27
2023-02-07T04:01:50.181Z,103134.38
2023-02-07T04:04:17.077Z,103140.50
2023-02-07T04:06:43.636Z,103144.13
2023-02-07T04:09:11.876Z,103149.91
2023-02-07T04:11:39.187Z,103151.50
2023-02-07T04:14:05.883Z,103147.25
2023-02-07T04:16:32.568Z,103149.36
2023-02-07T04:18:59.342Z,103154.09
2023-02-07T04:21:26.288Z,103159.16
2023-02-07T04:23:52.902Z,103157.77
2023-02-07T04:26:19.537Z,103159.41
2023-02-07T04:28:46.140Z,103159.81
2023-02-07T04:31:12.836Z,103157.26
2023-02-07T04:33:39.513Z,103157.80
2023-02-07T04:36:06.917Z,103162.83
2023-02-07T04:38:33.597Z,103161.23
2023-02-07T04:41:04.293Z,103161.69
2023-02-07T04:43:36.654Z,103166.43
2023-02-07T04:46:06.066Z,103169.73
2023-02-07T04:48:33.335Z,103172.85
2023-02-07T04:51:00.110Z,103174.90
2023-02-07T04:53:26.621Z,103176.24
2023-02-07T04:55:54.658Z,103172.46
2023-02-07T04:58:22.747Z,103180.55
2023-02-07T05:00:49.542Z,103185.60
2023-02-07T05:03:16.663Z,103189.00
2023-02-07T05:05:45.056Z,103196.91
2023-02-07T05:08:12.553Z,103203.08
2023-02-07T05:10:39.890Z,103203.74
2023-02-07T05:13:07.530Z,103201.30
2023-02-07T05:15:34.711Z,103203.89
2023-02-07T05:18:01.432Z,103210.19
2023-02-07T05:20:28.151Z,103212.58
2023-02-07T05:22:54.782Z,103214.18
2023-02-07T05:25:22.737Z,103218.13
2023-02-07T05:27:49.369Z,103222.21
2023-02-07T05:30:16.046Z,103220.89
2023-02-07T05:33:01.583Z,103229.15
2023-02-07T05:35:28.259Z,103234.02
2023-02-07T05:37:54.964Z,103236.33
2023-02-07T05:40:21.937Z,103246.21
2023-02-07T05:42:48.936Z,103252.33
2023-02-07T05:45:15.710Z,103253.05
2023-02-07T05:47:42.377Z,103252.41
2023-02-07T05:50:09.220Z,103256.52
2023-02-07T05:52:35.949Z,103262.80
2023-02-07T05:55:03.373Z,103264.33
2023-02-07T05:57:30.090Z,103264.45
2023-02-07T05:59:56.831Z,103269.92
2023-02-07T06:02:24.379Z,103273.08
2023-02-07T06:04:51.095Z,103273.82
2023-02-07T06:07:17.865Z,103280.80
2023-02-07T06:09:44.473Z,103287.65
2023-02-07T06:12:11.162Z,103288.85
2023-02-07T06:14:37.855Z,103290.11
2023-02-07T06:17:04.595Z,103288.21
2023-02-07T06:19:31.344Z,103288.01
2023-02-07T06:21:58.109Z,103291.52
2023-02-07T06:24:25.426Z,103287.97
2023-02-07T06:26:52.234Z,103289.30
2023-02-07T06:29:18.972Z,103291.17
2023-02-07T06:31:45.585Z,103289.34
2023-02-07T06:34:12.483Z,103287.66
2023-02-07T06:36:39.005Z,103294.48
2023-02-07T06:39:05.783Z,103292.44
2023-02-07T06:41:32.513Z,103290.42
2023-02-07T06:43:59.102Z,103290.83
2023-02-07T06:46:25.967Z,103295.84
2023-02-07T06:48:52.942Z,103297.71
2023-02-07T06:51:19.650Z,103297.60
2023-02-07T06:53:46.429Z,103293.11
2023-02-07T06:56:13.073Z,103291.65
2023-02-07T06:58:39.671Z,103290.09
2023-02-07T07:01:06.457Z,103289.63
2023-02-07T07:03:33.694Z,103290.73
2023-02-07T07:06:00.541Z,103297.16
2023-02-07T07:08:27.804Z,103303.17
2023-02-07T07:10:56.503Z,103305.65
2023-02-07T07:13:23.572Z,103312.50
2023-02-07T07:15:50.291Z,103316.63
2023-02-07T07:18:16.926Z,103320.80
2023-02-07T07:20:43.565Z,103324.45
2023-02-07T07:23:10.431Z,103324.01
2023-02-07T07:25:37.463Z,103319.05
2023-02-07T07:28:04.562Z,103319.63
2023-02-07T07:30:31.471Z,103320.04
2023-02-07T07:32:58.237Z,103321.81
2023-02-07T07:35:25.021Z,103321.77
2023-02-07T07:37:51.646Z,103321.50
2023-02-07T07:40:18.288Z,103320.85
2023-02-07T07:42:44.948Z,103320.95
2023-02-07T07:45:20.784Z,103320.79
2023-02-07T07:47:47.330Z,103323.48
2023-02-07T07:50:14.268Z,103318.64
2023-02-07T07:52:42.447Z,103321.93
2023-02-07T07:55:10.085Z,103316.17
2023-02-07T07:57:36.939Z,103319.61
2023-02-07T08:00:04.910Z,103322.48
2023-02-07T08:02:40.369Z,103318.33
2023-02-07T08:05:07.488Z,103319.33
2023-02-07T08:07:34.869Z,103320.09
2023-02-07T08:10:01.699Z,103311.80
2023-02-07T08:12:28.335Z,103313.76
2023-02-07T08:14:54.959Z,103303.15
2023-02-07T08:17:21.654Z,103297.98
2023-02-07T08:19:48.466Z,103291.41
2023-02-07T08:22:16.636Z,103289.92
2023-02-07T08:24:43.238Z,103289.52
2023-02-07T08:27:09.860Z,103286.05
2023-02-07T08:29:36.553Z,103284.24
2023-02-07T08:32:03.770Z,103280.73
2023-02-07T08:34:37.232Z,103277.21
2023-02-07T08:37:06.000Z,103274.70
2023-02-07T08:39:34.321Z,103277.84
2023-02-07T08:42:01.521Z,103279.60
2023-02-07T08:44:28.355Z,103276.82
2023-02-07T08:46:55.025Z,103274.77
2023-02-07T08:49:21.762Z,103277.41
2023-02-07T08:51:48.462Z,103271.43
2023-02-07T08:54:15.730Z,103273.25
2023-02-07T08:56:42.357Z,103271.42
2023-02-07T08:59:08.976Z,103271.55
2023-02-07T09:01:35.823Z,103273.98
2023-02-07T09:04:02.916Z,103266.92
2023-02-07T09:06:29.635Z,103265.55
2023-02-07T09:08:56.326Z,103262.23
2023-02-07T09:11:23.350Z,103258.34
2023-02-07T09:13:50.082Z,103260.67
2023-02-07T09:16:16.672Z,103253.34
2023-02-07T09:18:44.012Z,103247.11
2023-02-07T09:21:10.622Z,103242.13
2023-02-07T09:23:37.425Z,103240.34
2023-02-07T09:26:05.525Z,103239.12
2023-02-07T09:28:32.859Z,103237.53
2023-02-07T09:30:59.779Z,103236.02
2023-02-07T09:33:26.521Z,103241.08
2023-02-07T09:35:54.784Z,103237.08
2023-02-07T09:38:25.860Z,103236.44
2023-02-07T09:40:54.196Z,103238.70
2023-02-07T09:43:36.441Z,103237.89
2023-02-07T09:46:30.561Z,103229.00
2023-02-07T09:49:28.834Z,103229.27
2023-02-07T09:51:58.832Z,103229.08
2023-02-07T09:54:25.363Z,103223.86
2023-02-07T09:56:57.229Z,103224.86
2023-02-07T09:59:45.933Z,103221.64
2023-02-07T10:02:30.178Z,103223.52
2023-02-07T10:05:02.580Z,103220.91
2023-02-07T10:07:29.256Z,103218.64
2023-02-07T10:09:56.511Z,103215.25
2023-02-07T10:12:29.277Z,103209.95
2023-02-07T10:15:17.008Z,103206.23
2023-02-07T10:17:46.291Z,103203.86
2023-02-07T10:20:29.856Z,103195.44
2023-02-07T10:23:22.978Z,103193.79
2023-02-07T10:26:04.814Z,103190.92
2023-02-07T10:28:37.588Z,103192.30
2023-02-07T10:31:12.597Z,103187.42
2023-02-07T10:33:43.548Z,103181.55
2023-02-07T10:36:15.357Z,103185.19
2023-02-07T10:39:09.652Z,103177.95
2023-02-07T10:41:40.302Z,103166.20
2023-02-07T10:44:11.828Z,103165.69
2023-02-07T10:46:41.530Z,103153.29
2023-02-07T10:49:25.505Z,103154.69
2023-02-07T10:51:57.120Z,103149.13
2023-02-07T10:54:27.281Z,103142.38
2023-02-07T10:57:02.258Z,103138.58
2023-02-07T10:59:38.758Z,103134.13
2023-02-07T11:02:29.150Z,103126.93
2023-02-07T11:04:57.156Z,103123.39
2023-02-07T11:07:26.208Z,103119.42
2023-02-07T11:10:15.036Z,103114.45
2023-02-07T11:12:50.270Z,103108.55
2023-02-07T11:15:41.306Z,103101.74
2023-02-07T11:18:08.198Z,103094.56
2023-02-07T11:20:35.219Z,103096.48
2023-02-07T11:23:14.747Z,103098.98
2023-02-07T11:25:44.118Z,103095.38
2023-02-07T11:28:26.994Z,103101.49
2023-02-07T11:30:58.055Z,103091.30
2023-02-07T11:33:28.541Z,103099.71
2023-02-07T11:36:10.265Z,103103.80
2023-02-07T11:38:46.472Z,103093.83
2023-02-07T11:41:28.275Z,103091.19
2023-02-07T11:44:01.329Z,103091.95
2023-02-07T11:46:38.096Z,103086.65
2023-02-07T11:49:09.332Z,103088.84
2023-02-07T11:51:36.594Z,103086.49
2023-02-07T11:54:06.576Z,103081.10
2023-02-07T11:56:41.264Z,103079.34
2023-02-07T11:59:21.149Z,103072.33
2023-02-07T12:02:23.617Z,103070.23
2023-02-07T12:04:52.724Z,103071.90
2023-02-07T12:07:34.484Z,103067.27
2023-02-07T12:10:06.588Z,103060.92
2023-02-07T12:12:33.319Z,103057.85
2023-02-07T12:15:18.967Z,103057.60
2023-02-07T12:18:03.910Z,103054.38
2023-02-07T12:20:41.553Z,103051.45
2023-02-07T12:23:43.036Z,103042.41
2023-02-07T12:26:21.690Z,103036.42
2023-02-07T12:29:03.995Z,103032.50
2023-02-07T12:31:49.570Z,103022.67
2023-02-07T12:34:47.586Z,103016.48
2023-02-07T12:37:24.852Z,103011.20
2023-02-07T12:40:09.639Z,103009.27
2023-02-07T12:42:48.692Z,103007.20
2023-02-07T12:45:18.888Z,103006.32
2023-02-07T12:47:54.550Z,103009.45
2023-02-07T12:50:21.309Z,103007.30
2023-02-07T12:53:09.088Z,103004.41
2023-02-07T12:55:54.021Z,103004.29
2023-02-07T12:58:23.499Z,103001.27
2023-02-07T13:00:58.053Z,102997.95
2023-02-07T13:03:56.115Z,102997.45
2023-02-07T13:06:45.577Z,103001.67
2023-02-07T13:09:25.033Z,102996.42
2023-02-07T13:11:59.530Z,102997.90
2023-02-07T13:14:44.828Z,102995.58
2023-02-07T13:17:20.734Z,102988.19
2023-02-07T13:20:19.177Z,102989.71
2023-02-07T13:23:00.711Z,102990.17
2023-02-07T13:25:36.292Z,102976.23
2023-02-07T13:28:23.409Z,102978.95
2023-02-07T13:30:52.667Z,102973.02
2023-02-07T13:33:40.520Z,102970.27
2023-02-07T13:36:25.174Z,102965.63
2023-02-07T13:39:21.098Z,102959.24
2023-02-07T13:42:06.675Z,102956.41
2023-02-07T13:44:59.410Z,102946.77
2023-02-07T13:47:41.606Z,102942.20
2023-02-07T13:50:33.274Z,102940.77
2023-02-07T13:53:14.937Z,102942.32
2023-02-07T13:55:43.427Z,102944.23
2023-02-07T13:58:54.010Z,102939.86
2023-02-07T14:01:31.602Z,102931.71
2023-02-07T14:04:11.378Z,102931.05
2023-02-07T14:06:45.725Z,102930.55
2023-02-07T14:09:15.346Z,102931.27
2023-02-07T14:11:44.654Z,102929.85
2023-02-07T14:14:17.175Z,102920.95
2023-02-07T14:16:50.968Z,102919.95
2023-02-07T14:19:40.535Z,102913.92
2023-02-07T14:22:24.792Z,102919.60
2023-02-07T14:25:18.286Z,102914.56
2023-02-07T14:27:51.438Z,102916.73
2023-02-07T14:30:19.875Z,102916.09
2023-02-07T14:33:14.949Z,102914.13
2023-02-07T14:36:04.341Z,102920.45
2023-02-07T14:38:30.910Z,102919.39
2023-02-07T14:41:11.188Z,102912.94
2023-02-07T14:43:59.784Z,102905.59
2023-02-07T14:46:46.988Z,102907.44
2023-02-07T14:49:22.441Z,102905.73
2023-02-07T14:52:01.071Z,102906.23
2023-02-07T14:54:52.895Z,102904.75
2023-02-07T14:57:28.303Z,102901.89
2023-02-07T15:00:13.529Z,102902.05
2023-02-07T15:02:54.926Z,102902.70
2023-02-07T15:05:34.101Z,102896.65
2023-02-07T15:08:03.576Z,102894.42
2023-02-07T15:10:33.719Z,102892.23
2023-02-07T15:13:02.032Z,102882.85
2023-02-07T15:15:31.225Z,102878.06
2023-02-07T15:18:01.246Z,102877.38
2023-02-07T15:20:32.128Z,102873.05
2023-02-07T15:23:02.146Z,102880.26
2023-02-07T15:25:31.026Z,102880.88
2023-02-07T15:28:05.605Z,102883.84
2023-02-07T15:30:33.811Z,102886.64
2023-02-07T15:33:00.590Z,102885.11
2023-02-07T15:35:28.758Z,102881.42
2023-02-07T15:38:17.502Z,102879.81
2023-02-07T15:40:44.451Z,102870.09
2023-02-07T15:43:23.494Z,102868.31
2023-02-07T15:46:06.943Z,102862.09
2023-02-07T15:48:45.378Z,102858.17
2023-02-07T15:51:13.060Z,102860.94
2023-02-07T15:53:40.601Z,102863.83
2023-02-07T15:56:07.934Z,102864.77
2023-02-07T15:58:37.610Z,102865.33
2023-02-07T16:01:14.102Z,102864.48
2023-02-07T16:03:47.830Z,102869.46
2023-02-07T16:06:22.680Z,102868.23
2023-02-07T16:08:52.894Z,102867.70
2023-02-07T16:11:25.413Z,102870.17
2023-02-07T16:13:59.369Z,102874.40
2023-02-07T16:16:36.000Z,102871.41
2023-02-07T16:19:08.826Z,102874.12
2023-02-07T16:21:37.567Z,102886.24
2023-02-07T16:24:13.858Z,102889.42
2023-02-07T16:26:40.942Z,102884.50
2023-02-07T16:29:08.406Z,102883.61
2023-02-07T16:31:36.188Z,102883.60
2023-02-07T16:34:03.073Z,102886.91
2023-02-07T16:36:29.911Z,102887.79
2023-02-07T16:38:56.585Z,102895.97
2023-02-07T16:41:31.500Z,102898.69
2023-02-07T16:44:05.092Z,102907.77
2023-02-07T16:46:31.873Z,102913.57
2023-02-07T16:48:58.615Z,102919.75
2023-02-07T16:51:25.198Z,102928.19
2023-02-07T16:53:51.996Z,102938.35
2023-02-07T16:56:26.571Z,102950.10
2023-02-07T16:58:53.459Z,102952.04
2023-02-07T17:01:22.052Z,102953.65
2023-02-07T17:03:49.044Z,102953.90
2023-02-07T17:06:21.267Z,102964.11
2023-02-07T17:08:49.260Z,102964.83
2023-02-07T17:11:28.869Z,102967.92
2023-02-07T17:13:57.506Z,102973.52
2023-02-07T17:16:27.302Z,102979.36
2023-02-07T17:18:53.976Z,102981.25
2023-02-07T17:21:22.422Z,102984.82
2023-02-07T17:23:49.621Z,102982.27
2023-02-07T17:26:26.543Z,102985.92
2023-02-07T17:28:54.358Z,102993.92
2023-02-07T17:31:21.764Z,102993.45
2023-02-07T17:33:48.625Z,102991.89
2023-02-07T17:36:15.910Z,102994.24
2023-02-07T17:38:43.364Z,103002.20
2023-02-07T17:41:12.086Z,103003.75
2023-02-07T17:43:41.236Z,103004.27
2023-02-07T17:46:18.219Z,103006.23
2023-02-07T17:48:49.200Z,103001.60
2023-02-07T17:51:17.192Z,103006.64
2023-02-07T17:53:44.736Z,103008.05
2023-02-07T17:56:28.251Z,103009.55
2023-02-07T17:58:57.400Z,103014.48
2023-02-07T18:01:24.448Z,103011.92
2023-02-07T18:03:54.522Z,103009.98
2023-02-07T18:06:24.390Z,103010.27
2023-02-07T18:08:51.713Z,103003.05
2023-02-07T18:11:18.793Z,103005.88
2023-02-07T18:13:48.006Z,103005.76
2023-02-07T18:16:18.436Z,103005.95
2023-02-07T18:18:45.110Z,103008.94
2023-02-07T18:21:13.428Z,103014.20
2023-02-07T18:23:43.095Z,103023.10
2023-02-07T18:26:11.797Z,103024.88
2023-02-07T18:28:38.654Z,103025.89
2023-02-07T18:31:10.180Z,103016.88
2023-02-07T18:33:36.954Z,103013.11
2023-02-07T18:36:03.653Z,103012.12
2023-02-07T18:38:30.320Z,103013.91
2023-02-07T18:40:56.933Z,103012.80
2023-02-07T18:43:23.653Z,103015.10
2023-02-07T18:45:50.518Z,103013.11
2023-02-07T18:48:17.233Z,103013.22
2023-02-07T18:50:45.106Z,103010.90
2023-02-07T18:53:12.972Z,103015.92
2023-02-07T18:55:39.612Z,103017.01
2023-02-07T18:58:06.311Z,103011.73
2023-02-07T19:00:32.946Z,103009.13
2023-02-07T19:02:59.629Z,103011.77
2023-02-07T19:05:26.374Z,103016.65
2023-02-07T19:07:54.228Z,103019.09
2023-02-07T19:10:20.899Z,103016.80
2023-02-07T19:12:47.564Z,103020.69
2023-02-07T19:15:14.259Z,103027.55
2023-02-07T19:17:40.955Z,103029.18
2023-02-07T19:20:07.917Z,103027.13
2023-02-07T19:22:36.144Z,103029.60
2023-02-07T19:25:05.657Z,103035.68
2023-02-07T19:27:33.932Z,103036.06
2023-02-07T19:30:00.760Z,103032.35
2023-02-07T19:32:27.906Z,103029.71
2023-02-07T19:34:55.183Z,103027.92
2023-02-07T19:37:22.514Z,103026.39
2023-02-07T19:39:49.384Z,103032.79
2023-02-07T19:42:16.411Z,103029.29
2023-02-07T19:44:43.120Z,103032.79
2023-02-07T19:47:10.046Z,103037.16
2023-02-07T19:49:36.913Z,103038.89
2023-02-07T19:52:03.801Z,103047.00
2023-02-07T19:54:30.538Z,103046.67
2023-02-07T19:56:57.267Z,103054.35
2023-02-07T19:59:23.906Z,103049.65
2023-02-07T20:01:50.713Z,103050.37
2023-02-07T20:04:17.593Z,103050.30
2023-02-07T20:06:44.197Z,103053.14
2023-02-07T20:09:10.926Z,103058.70
2023-02-07T20:11:37.662Z,103054.90
2023-02-07T20:14:06.018Z,103060.94
2023-02-07T20:16:36.548Z,103062.45
2023-02-07T20:19:05.938Z,103063.52
2023-02-07T20:21:34.167Z,103062.38
2023-02-07T20:24:01.981Z,103064.35
2023-02-07T20:26:33.484Z,103073.05
2023-02-07T20:29:01.779Z,103070.85
2023-02-07T20:31:31.988Z,103070.06
2023-02-07T20:33:59.594Z,103072.64
2023-02-07T20:36:26.829Z,103075.39
2023-02-07T20:38:57.290Z,103081.18
2023-02-07T20:41:36.244Z,103082.16
2023-02-07T20:44:06.811Z,103081.54
2023-02-07T20:46:36.274Z,103078.73
2023-02-07T20:49:06.881Z,103082.24
2023-02-07T20:51:33.912Z,103078.95
2023-02-07T20:54:03.352Z,103078.75
2023-02-07T20:56:32.097Z,103079.03
2023-02-07T20:58:59.724Z,103081.33
2023-02-07T21:01:27.691Z,103079.13
2023-02-07T21:04:01.848Z,103075.41
2023-02-07T21:06:29.084Z,103071.78
2023-02-07T21:09:01.482Z,103073.77
2023-02-07T21:11:49.108Z,103077.61
2023-02-07T21:14:20.233Z,103071.91
2023-02-07T21:16:47.008Z,103075.28
2023-02-07T21:19:14.808Z,103074.57
2023-02-07T21:21:42.755Z,103077.47
2023-02-07T21:24:10.226Z,103078.58
2023-02-07T21:26:37.031Z,103081.15
2023-02-07T21:29:04.850Z,103081.15
2023-02-07T21:31:34.903Z,103085.65
2023-02-07T21:34:03.600Z,103085.36
2023-02-07T21:36:32.849Z,103083.34
2023-02-07T21:39:04.522Z,103082.85
2023-02-07T21:41:31.870Z,103081.98
2023-02-07T21:43:59.838Z,103081.79
2023-02-07T21:46:32.904Z,103079.97
2023-02-07T21:49:03.275Z,103084.68
2023-02-07T21:51:32.488Z,103081.77
2023-02-07T21:54:00.502Z,103083.06
2023-02-07T21:56:30.645Z,103079.38
2023-02-07T21:59:11.714Z,103081.62
2023-02-07T22:01:38.812Z,103080.23
2023-02-07T22:04:10.586Z,103081.11
2023-02-07T22:06:42.140Z,103084.05
2023-02-07T22:09:12.961Z,103087.03
2023-02-07T22:11:40.056Z,103084.23
2023-02-07T22:14:07.227Z,103086.63
2023-02-07T22:16:34.508Z,103084.43
2023-02-07T22:19:03.063Z,103088.48
2023-02-07T22:21:35.420Z,103087.69
2023-02-07T22:24:03.483Z,103092.00
2023-02-07T22:26:31.067Z,103089.93
2023-02-07T22:28:59.122Z,103089.80
2023-02-07T22:31:28.706Z,103088.98
2023-02-07T22:33:59.376Z,103082.80
2023-02-07T22:36:28.407Z,103088.74
2023-02-07T22:38:55.540Z,103086.80
2023-02-07T22:41:22.378Z,103083.02
2023-02-07T22:43:49.866Z,103082.83
2023-02-07T22:46:19.485Z,103083.28
2023-02-07T22:48:47.314Z,103087.67
2023-02-07T22:51:24.722Z,103087.48
2023-02-07T22:53:55.392Z,103085.04
2023-02-07T22:56:22.711Z,103087.02
2023-02-07T22:58:49.370Z,103085.15
2023-02-07T23:01:28.521Z,103090.95
2023-02-07T23:03:56.155Z,103093.75
2023-02-07T23:06:24.786Z,103094.46
2023-02-07T23:08:52.379Z,103094.88
2023-02-07T23:11:20.594Z,103095.33
2023-02-07T23:13:47.290Z,103096.04
2023-02-07T23:16:16.535Z,103097.69
2023-02-07T23:18:43.204Z,103098.23
2023-02-07T23:21:11.904Z,103098.02
2023-02-07T23:23:39.115Z,103098.21
2023-02-07T23:26:10.690Z,103099.48
2023-02-07T23:28:38.133Z,103101.23
2023-02-07T23:31:06.881Z,103100.77
2023-02-07T23:33:34.140Z,103099.86
2023-02-07T23:36:01.391Z,103095.40
2023-02-07T23:38:28.472Z,103090.52
2023-02-07T23:40:55.121Z,103091.98
2023-02-07T23:43:21.804Z,103082.98
2023-02-07T23:45:48.417Z,103082.48
2023-02-07T23:48:15.133Z,103078.45
2023-02-07T23:50:42.113Z,103072.36
2023-02-07T23:53:09.442Z,103066.30
2023-02-07T23:55:41.864Z,103067.78
2023-02-07T23:58:08.592Z,103063.91
